sensor_id;sensor_type;location;lat;lon;timestamp;temperature;humidity
13446;DHT22;6795;51.232;3.764;2022-07-25T00:02:14;18.10;99.90
13446;DHT22;6795;51.232;3.764;2022-07-25T00:04:43;18.10;99.90
13446;DHT22;6795;51.232;3.764;2022-07-25T00:07:11;18.20;99.90
13446;DHT22;6795;51.232;3.764;2022-07-25T00:09:41;18.20;99.90
13446;DHT22;6795;51.232;3.764;2022-07-25T00:12:12;18.20;99.90
13446;DHT22;6795;51.232;3.764;2022-07-25T00:14:40;18.20;99.90
13446;DHT22;6795;51.232;3.764;2022-07-25T00:17:08;18.20;99.90
13446;DHT22;6795;51.232;3.764;2022-07-25T00:19:37;18.20;99.90
13446;DHT22;6795;51.232;3.764;2022-07-25T00:22:05;18.30;99.90
13446;DHT22;6795;51.232;3.764;2022-07-25T00:24:34;18.20;99.90
13446;DHT22;6795;51.232;3.764;2022-07-25T00:27:04;18.10;99.90
13446;DHT22;6795;51.232;3.764;2022-07-25T00:29:32;18.00;99.90
13446;DHT22;6795;51.232;3.764;2022-07-25T00:32:00;18.00;99.90
13446;DHT22;6795;51.232;3.764;2022-07-25T00:34:29;18.10;99.90
13446;DHT22;6795;51.232;3.764;2022-07-25T00:36:57;18.20;99.90
13446;DHT22;6795;51.232;3.764;2022-07-25T00:39:25;18.00;99.90
13446;DHT22;6795;51.232;3.764;2022-07-25T00:41:54;17.90;99.90
13446;DHT22;6795;51.232;3.764;2022-07-25T00:44:24;17.90;99.90
13446;DHT22;6795;51.232;3.764;2022-07-25T00:46:53;17.80;99.90
13446;DHT22;6795;51.232;3.764;2022-07-25T00:49:22;17.90;99.90
13446;DHT22;6795;51.232;3.764;2022-07-25T00:51:53;18.00;99.90
13446;DHT22;6795;51.232;3.764;2022-07-25T00:54:22;18.00;99.90
13446;DHT22;6795;51.232;3.764;2022-07-25T00:56:51;18.10;99.90
13446;DHT22;6795;51.232;3.764;2022-07-25T00:59:19;18.10;99.90
13446;DHT22;6795;51.232;3.764;2022-07-25T01:01:49;18.10;99.90
13446;DHT22;6795;51.232;3.764;2022-07-25T01:04:20;18.00;99.90
13446;DHT22;6795;51.232;3.764;2022-07-25T01:06:51;18.00;99.90
13446;DHT22;6795;51.232;3.764;2022-07-25T01:09:20;18.00;99.90
13446;DHT22;6795;51.232;3.764;2022-07-25T01:11:49;18.00;99.90
13446;DHT22;6795;51.232;3.764;2022-07-25T01:14:17;17.90;99.90
13446;DHT22;6795;51.232;3.764;2022-07-25T01:16:49;17.80;99.90
13446;DHT22;6795;51.232;3.764;2022-07-25T01:19:18;17.80;99.90
13446;DHT22;6795;51.232;3.764;2022-07-25T01:21:47;17.80;99.90
13446;DHT22;6795;51.232;3.764;2022-07-25T01:24:16;17.90;99.90
13446;DHT22;6795;51.232;3.764;2022-07-25T01:26:44;17.90;99.90
13446;DHT22;6795;51.232;3.764;2022-07-25T01:29:12;17.90;99.90
13446;DHT22;6795;51.232;3.764;2022-07-25T01:31:41;17.90;99.90
13446;DHT22;6795;51.232;3.764;2022-07-25T01:34:09;18.00;99.90
13446;DHT22;6795;51.232;3.764;2022-07-25T01:36:37;17.90;99.90
13446;DHT22;6795;51.232;3.764;2022-07-25T01:39:07;17.80;99.90
13446;DHT22;6795;51.232;3.764;2022-07-25T01:41:35;17.90;99.90
13446;DHT22;6795;51.232;3.764;2022-07-25T01:44:04;17.80;99.90
13446;DHT22;6795;51.232;3.764;2022-07-25T01:46:33;17.60;99.90
13446;DHT22;6795;51.232;3.764;2022-07-25T01:49:01;17.60;99.90
13446;DHT22;6795;51.232;3.764;2022-07-25T01:51:30;17.70;99.90
13446;DHT22;6795;51.232;3.764;2022-07-25T01:53:58;17.70;99.90
13446;DHT22;6795;51.232;3.764;2022-07-25T01:56:30;17.70;99.90
13446;DHT22;6795;51.232;3.764;2022-07-25T01:58:59;17.70;99.90
13446;DHT22;6795;51.232;3.764;2022-07-25T02:01:27;17.60;99.90
13446;DHT22;6795;51.232;3.764;2022-07-25T02:03:55;17.70;99.90
13446;DHT22;6795;51.232;3.764;2022-07-25T02:06:24;17.90;99.90
13446;DHT22;6795;51.232;3.764;2022-07-25T02:08:52;18.00;99.90
13446;DHT22;6795;51.232;3.764;2022-07-25T02:11:20;18.10;99.90
13446;DHT22;6795;51.232;3.764;2022-07-25T02:13:50;18.20;99.90
13446;DHT22;6795;51.232;3.764;2022-07-25T02:16:18;18.20;99.90
13446;DHT22;6795;51.232;3.764;2022-07-25T02:18:55;18.20;99.90
13446;DHT22;6795;51.232;3.764;2022-07-25T02:21:23;18.20;99.90
13446;DHT22;6795;51.232;3.764;2022-07-25T02:23:52;18.20;99.90
13446;DHT22;6795;51.232;3.764;2022-07-25T02:26:20;18.30;99.90
13446;DHT22;6795;51.232;3.764;2022-07-25T02:28:50;18.30;99.90
13446;DHT22;6795;51.232;3.764;2022-07-25T02:31:18;18.30;99.90
13446;DHT22;6795;51.232;3.764;2022-07-25T02:33:46;18.30;99.90
13446;DHT22;6795;51.232;3.764;2022-07-25T02:36:15;18.40;99.90
13446;DHT22;6795;51.232;3.764;2022-07-25T02:38:43;18.40;99.90
13446;DHT22;6795;51.232;3.764;2022-07-25T02:41:11;18.40;99.90
13446;DHT22;6795;51.232;3.764;2022-07-25T02:43:40;18.40;99.90
13446;DHT22;6795;51.232;3.764;2022-07-25T02:46:09;18.40;99.90
13446;DHT22;6795;51.232;3.764;2022-07-25T02:48:38;18.40;99.90
13446;DHT22;6795;51.232;3.764;2022-07-25T02:51:06;18.40;99.90
13446;DHT22;6795;51.232;3.764;2022-07-25T02:53:35;18.40;99.90
13446;DHT22;6795;51.232;3.764;2022-07-25T02:56:24;18.30;99.90
13446;DHT22;6795;51.232;3.764;2022-07-25T02:58:56;18.40;99.90
13446;DHT22;6795;51.232;3.764;2022-07-25T03:01:26;18.40;99.90
13446;DHT22;6795;51.232;3.764;2022-07-25T03:03:54;18.30;99.90
13446;DHT22;6795;51.232;3.764;2022-07-25T03:06:23;18.40;99.90
13446;DHT22;6795;51.232;3.764;2022-07-25T03:08:51;18.40;99.90
13446;DHT22;6795;51.232;3.764;2022-07-25T03:11:20;18.40;99.90
13446;DHT22;6795;51.232;3.764;2022-07-25T03:13:48;18.30;99.90
13446;DHT22;6795;51.232;3.764;2022-07-25T03:16:16;18.30;99.90
13446;DHT22;6795;51.232;3.764;2022-07-25T03:18:46;18.30;99.90
13446;DHT22;6795;51.232;3.764;2022-07-25T03:21:14;18.30;99.90
13446;DHT22;6795;51.232;3.764;2022-07-25T03:23:43;18.30;99.90
13446;DHT22;6795;51.232;3.764;2022-07-25T03:26:18;18.30;99.90
13446;DHT22;6795;51.232;3.764;2022-07-25T03:28:46;18.30;99.90
13446;DHT22;6795;51.232;3.764;2022-07-25T03:31:14;18.20;99.90
13446;DHT22;6795;51.232;3.764;2022-07-25T03:33:43;18.20;99.90
13446;DHT22;6795;51.232;3.764;2022-07-25T03:36:13;18.20;99.90
13446;DHT22;6795;51.232;3.764;2022-07-25T03:38:41;18.10;99.90
13446;DHT22;6795;51.232;3.764;2022-07-25T03:41:10;18.00;99.90
13446;DHT22;6795;51.232;3.764;2022-07-25T03:43:39;17.90;99.90
13446;DHT22;6795;51.232;3.764;2022-07-25T03:46:07;17.80;99.90
13446;DHT22;6795;51.232;3.764;2022-07-25T03:48:36;17.80;99.90
13446;DHT22;6795;51.232;3.764;2022-07-25T03:51:07;17.80;99.90
13446;DHT22;6795;51.232;3.764;2022-07-25T03:53:37;17.80;99.90
13446;DHT22;6795;51.232;3.764;2022-07-25T03:56:19;17.80;99.90
13446;DHT22;6795;51.232;3.764;2022-07-25T03:58:48;17.70;99.90
13446;DHT22;6795;51.232;3.764;2022-07-25T04:01:16;17.70;99.90
13446;DHT22;6795;51.232;3.764;2022-07-25T04:03:45;17.80;99.90
13446;DHT22;6795;51.232;3.764;2022-07-25T04:06:13;17.70;99.90
13446;DHT22;6795;51.232;3.764;2022-07-25T04:08:43;17.70;99.90
13446;DHT22;6795;51.232;3.764;2022-07-25T04:11:11;17.70;99.90
13446;DHT22;6795;51.232;3.764;2022-07-25T04:13:39;17.70;99.90
13446;DHT22;6795;51.232;3.764;2022-07-25T04:16:08;17.70;99.90
13446;DHT22;6795;51.232;3.764;2022-07-25T04:18:48;17.70;99.90
13446;DHT22;6795;51.232;3.764;2022-07-25T04:21:17;17.70;99.90
13446;DHT22;6795;51.232;3.764;2022-07-25T04:23:47;17.70;99.90
13446;DHT22;6795;51.232;3.764;2022-07-25T04:26:16;17.70;99.90
13446;DHT22;6795;51.232;3.764;2022-07-25T04:28:45;17.70;99.90
13446;DHT22;6795;51.232;3.764;2022-07-25T04:31:13;17.60;99.90
13446;DHT22;6795;51.232;3.764;2022-07-25T04:33:42;17.60;99.90
13446;DHT22;6795;51.232;3.764;2022-07-25T04:36:11;17.60;99.90
13446;DHT22;6795;51.232;3.764;2022-07-25T04:38:39;17.60;99.90
13446;DHT22;6795;51.232;3.764;2022-07-25T04:41:10;17.50;99.90
13446;DHT22;6795;51.232;3.764;2022-07-25T04:43:38;17.60;99.90
13446;DHT22;6795;51.232;3.764;2022-07-25T04:46:17;17.50;99.90
13446;DHT22;6795;51.232;3.764;2022-07-25T04:48:45;17.60;99.90
13446;DHT22;6795;51.232;3.764;2022-07-25T04:51:14;17.70;99.90
13446;DHT22;6795;51.232;3.764;2022-07-25T04:53:43;17.70;99.90
13446;DHT22;6795;51.232;3.764;2022-07-25T04:56:12;17.80;99.90
13446;DHT22;6795;51.232;3.764;2022-07-25T04:58:41;17.80;99.90
13446;DHT22;6795;51.232;3.764;2022-07-25T05:01:09;17.90;99.90
13446;DHT22;6795;51.232;3.764;2022-07-25T05:03:40;18.00;99.90
13446;DHT22;6795;51.232;3.764;2022-07-25T05:06:16;18.00;99.90
13446;DHT22;6795;51.232;3.764;2022-07-25T05:08:45;18.10;99.90
13446;DHT22;6795;51.232;3.764;2022-07-25T05:11:14;18.10;99.90
13446;DHT22;6795;51.232;3.764;2022-07-25T05:13:43;18.10;99.90
13446;DHT22;6795;51.232;3.764;2022-07-25T05:16:11;18.20;99.90
13446;DHT22;6795;51.232;3.764;2022-07-25T05:18:39;18.30;99.90
13446;DHT22;6795;51.232;3.764;2022-07-25T05:21:09;18.40;99.90
13446;DHT22;6795;51.232;3.764;2022-07-25T05:23:38;18.50;99.90
13446;DHT22;6795;51.232;3.764;2022-07-25T05:26:06;18.70;99.90
13446;DHT22;6795;51.232;3.764;2022-07-25T05:28:36;18.80;99.90
13446;DHT22;6795;51.232;3.764;2022-07-25T05:31:04;19.00;99.90
13446;DHT22;6795;51.232;3.764;2022-07-25T05:33:33;19.00;99.90
13446;DHT22;6795;51.232;3.764;2022-07-25T05:36:01;19.10;99.90
13446;DHT22;6795;51.232;3.764;2022-07-25T05:38:31;19.10;99.90
13446;DHT22;6795;51.232;3.764;2022-07-25T05:40:59;19.20;99.90
13446;DHT22;6795;51.232;3.764;2022-07-25T05:43:28;19.20;99.90
13446;DHT22;6795;51.232;3.764;2022-07-25T05:46:00;19.30;99.90
13446;DHT22;6795;51.232;3.764;2022-07-25T05:48:29;19.30;99.90
13446;DHT22;6795;51.232;3.764;2022-07-25T05:50:57;19.40;99.90
13446;DHT22;6795;51.232;3.764;2022-07-25T05:53:26;19.40;99.90
13446;DHT22;6795;51.232;3.764;2022-07-25T05:55:54;19.40;99.90
13446;DHT22;6795;51.232;3.764;2022-07-25T05:58:22;19.40;99.90
13446;DHT22;6795;51.232;3.764;2022-07-25T06:00:56;19.60;99.90
13446;DHT22;6795;51.232;3.764;2022-07-25T06:03:25;19.60;99.90
13446;DHT22;6795;51.232;3.764;2022-07-25T06:05:54;19.70;99.90
13446;DHT22;6795;51.232;3.764;2022-07-25T06:08:23;19.80;99.90
13446;DHT22;6795;51.232;3.764;2022-07-25T06:10:55;20.00;99.90
13446;DHT22;6795;51.232;3.764;2022-07-25T06:13:24;20.20;99.90
13446;DHT22;6795;51.232;3.764;2022-07-25T06:15:54;20.30;99.90
13446;DHT22;6795;51.232;3.764;2022-07-25T06:18:22;20.50;99.90
13446;DHT22;6795;51.232;3.764;2022-07-25T06:20:52;20.60;99.90
13446;DHT22;6795;51.232;3.764;2022-07-25T06:23:21;20.60;99.90
13446;DHT22;6795;51.232;3.764;2022-07-25T06:25:53;20.70;99.90
13446;DHT22;6795;51.232;3.764;2022-07-25T06:28:21;20.70;99.90
13446;DHT22;6795;51.232;3.764;2022-07-25T06:30:50;20.80;99.90
13446;DHT22;6795;51.232;3.764;2022-07-25T06:33:18;20.80;99.90
13446;DHT22;6795;51.232;3.764;2022-07-25T06:35:46;21.00;99.90
13446;DHT22;6795;51.232;3.764;2022-07-25T06:38:16;21.00;99.90
13446;DHT22;6795;51.232;3.764;2022-07-25T06:40:45;21.00;99.90
13446;DHT22;6795;51.232;3.764;2022-07-25T06:43:13;20.90;99.90
13446;DHT22;6795;51.232;3.764;2022-07-25T06:45:41;20.90;99.90
13446;DHT22;6795;51.232;3.764;2022-07-25T06:48:13;21.00;99.90
13446;DHT22;6795;51.232;3.764;2022-07-25T06:50:42;21.00;99.90
13446;DHT22;6795;51.232;3.764;2022-07-25T06:53:10;21.20;99.90
13446;DHT22;6795;51.232;3.764;2022-07-25T06:55:40;21.20;99.90
13446;DHT22;6795;51.232;3.764;2022-07-25T06:58:08;21.30;99.90
13446;DHT22;6795;51.232;3.764;2022-07-25T07:00:37;21.30;99.90
13446;DHT22;6795;51.232;3.764;2022-07-25T07:03:06;21.40;99.90
13446;DHT22;6795;51.232;3.764;2022-07-25T07:05:34;21.50;99.90
13446;DHT22;6795;51.232;3.764;2022-07-25T07:08:03;21.80;99.90
13446;DHT22;6795;51.232;3.764;2022-07-25T07:10:32;22.40;99.90
13446;DHT22;6795;51.232;3.764;2022-07-25T07:13:06;22.80;99.90
13446;DHT22;6795;51.232;3.764;2022-07-25T07:15:35;22.90;99.90
13446;DHT22;6795;51.232;3.764;2022-07-25T07:18:04;22.50;99.90
13446;DHT22;6795;51.232;3.764;2022-07-25T07:20:33;22.30;99.90
13446;DHT22;6795;51.232;3.764;2022-07-25T07:23:02;22.20;99.90
13446;DHT22;6795;51.232;3.764;2022-07-25T07:25:31;21.80;99.90
13446;DHT22;6795;51.232;3.764;2022-07-25T07:28:00;21.60;99.90
13446;DHT22;6795;51.232;3.764;2022-07-25T07:30:31;21.50;99.90
13446;DHT22;6795;51.232;3.764;2022-07-25T07:33:19;21.40;99.90
13446;DHT22;6795;51.232;3.764;2022-07-25T07:35:48;21.60;99.90
13446;DHT22;6795;51.232;3.764;2022-07-25T07:38:16;21.80;99.90
13446;DHT22;6795;51.232;3.764;2022-07-25T07:40:44;22.00;99.90
13446;DHT22;6795;51.232;3.764;2022-07-25T07:43:13;22.20;99.90
13446;DHT22;6795;51.232;3.764;2022-07-25T07:45:43;22.70;99.90
13446;DHT22;6795;51.232;3.764;2022-07-25T07:48:11;23.30;99.90
13446;DHT22;6795;51.232;3.764;2022-07-25T07:50:39;23.80;99.90
13446;DHT22;6795;51.232;3.764;2022-07-25T07:53:08;24.30;99.90
13446;DHT22;6795;51.232;3.764;2022-07-25T07:55:36;24.70;99.90
13446;DHT22;6795;51.232;3.764;2022-07-25T07:58:11;24.90;99.90
13446;DHT22;6795;51.232;3.764;2022-07-25T08:00:43;24.90;99.90
13446;DHT22;6795;51.232;3.764;2022-07-25T08:03:12;25.30;99.90
13446;DHT22;6795;51.232;3.764;2022-07-25T08:05:45;25.40;99.90
13446;DHT22;6795;51.232;3.764;2022-07-25T08:08:14;25.60;99.90
13446;DHT22;6795;51.232;3.764;2022-07-25T08:10:44;25.60;99.90
13446;DHT22;6795;51.232;3.764;2022-07-25T08:13:14;25.40;99.90
13446;DHT22;6795;51.232;3.764;2022-07-25T08:15:46;25.40;99.90
13446;DHT22;6795;51.232;3.764;2022-07-25T08:18:14;25.30;99.90
13446;DHT22;6795;51.232;3.764;2022-07-25T08:20:44;25.20;99.90
13446;DHT22;6795;51.232;3.764;2022-07-25T08:23:12;25.10;99.90
13446;DHT22;6795;51.232;3.764;2022-07-25T08:25:41;25.10;99.90
13446;DHT22;6795;51.232;3.764;2022-07-25T08:28:10;25.10;99.90
13446;DHT22;6795;51.232;3.764;2022-07-25T08:30:39;25.00;99.90
13446;DHT22;6795;51.232;3.764;2022-07-25T08:33:11;25.40;99.90
13446;DHT22;6795;51.232;3.764;2022-07-25T08:35:44;25.30;99.90
13446;DHT22;6795;51.232;3.764;2022-07-25T08:38:12;25.50;99.90
13446;DHT22;6795;51.232;3.764;2022-07-25T08:40:41;25.20;99.90
13446;DHT22;6795;51.232;3.764;2022-07-25T08:43:10;25.00;99.90
13446;DHT22;6795;51.232;3.764;2022-07-25T08:45:43;25.00;99.90
13446;DHT22;6795;51.232;3.764;2022-07-25T08:48:16;25.10;99.90
13446;DHT22;6795;51.232;3.764;2022-07-25T08:50:46;25.20;99.90
13446;DHT22;6795;51.232;3.764;2022-07-25T08:53:15;25.10;99.90
13446;DHT22;6795;51.232;3.764;2022-07-25T08:56:03;24.70;99.90
13446;DHT22;6795;51.232;3.764;2022-07-25T08:58:48;24.60;99.90
13446;DHT22;6795;51.232;3.764;2022-07-25T09:01:17;24.70;99.90
13446;DHT22;6795;51.232;3.764;2022-07-25T09:03:46;24.60;99.90
13446;DHT22;6795;51.232;3.764;2022-07-25T09:06:17;24.40;99.90
13446;DHT22;6795;51.232;3.764;2022-07-25T09:08:56;24.40;99.90
13446;DHT22;6795;51.232;3.764;2022-07-25T09:11:30;24.80;99.90
13446;DHT22;6795;51.232;3.764;2022-07-25T09:14:00;25.00;99.90
13446;DHT22;6795;51.232;3.764;2022-07-25T09:16:32;25.10;99.90
13446;DHT22;6795;51.232;3.764;2022-07-25T09:19:10;25.20;99.90
13446;DHT22;6795;51.232;3.764;2022-07-25T09:21:40;24.90;99.90
13446;DHT22;6795;51.232;3.764;2022-07-25T09:24:12;24.80;99.90
13446;DHT22;6795;51.232;3.764;2022-07-25T09:26:46;24.80;99.90
13446;DHT22;6795;51.232;3.764;2022-07-25T09:29:16;24.80;99.90
13446;DHT22;6795;51.232;3.764;2022-07-25T09:31:45;24.60;99.90
13446;DHT22;6795;51.232;3.764;2022-07-25T09:34:27;24.50;99.90
13446;DHT22;6795;51.232;3.764;2022-07-25T09:36:57;24.50;99.90
13446;DHT22;6795;51.232;3.764;2022-07-25T09:39:36;24.50;99.90
13446;DHT22;6795;51.232;3.764;2022-07-25T09:42:20;24.60;99.90
13446;DHT22;6795;51.232;3.764;2022-07-25T09:45:05;24.50;99.90
13446;DHT22;6795;51.232;3.764;2022-07-25T09:47:35;24.10;99.90
13446;DHT22;6795;51.232;3.764;2022-07-25T09:50:06;24.00;99.90
13446;DHT22;6795;51.232;3.764;2022-07-25T09:52:36;24.10;99.90
13446;DHT22;6795;51.232;3.764;2022-07-25T09:55:05;24.20;99.90
13446;DHT22;6795;51.232;3.764;2022-07-25T09:57:35;24.00;99.90
13446;DHT22;6795;51.232;3.764;2022-07-25T10:00:05;23.80;99.90
13446;DHT22;6795;51.232;3.764;2022-07-25T10:02:40;24.00;99.90
13446;DHT22;6795;51.232;3.764;2022-07-25T10:05:15;24.40;99.90
13446;DHT22;6795;51.232;3.764;2022-07-25T10:07:46;24.60;99.90
13446;DHT22;6795;51.232;3.764;2022-07-25T10:10:25;24.80;99.90
13446;DHT22;6795;51.232;3.764;2022-07-25T10:13:02;24.70;99.90
13446;DHT22;6795;51.232;3.764;2022-07-25T10:15:41;24.60;99.90
13446;DHT22;6795;51.232;3.764;2022-07-25T10:18:10;24.90;99.90
13446;DHT22;6795;51.232;3.764;2022-07-25T10:20:41;25.00;99.90
13446;DHT22;6795;51.232;3.764;2022-07-25T10:23:20;25.20;99.90
13446;DHT22;6795;51.232;3.764;2022-07-25T10:26:07;25.00;99.90
13446;DHT22;6795;51.232;3.764;2022-07-25T10:28:41;24.90;99.90
13446;DHT22;6795;51.232;3.764;2022-07-25T10:31:18;25.10;99.90
13446;DHT22;6795;51.232;3.764;2022-07-25T10:33:51;25.90;99.90
13446;DHT22;6795;51.232;3.764;2022-07-25T10:36:22;26.30;99.90
13446;DHT22;6795;51.232;3.764;2022-07-25T10:38:55;25.80;99.90
13446;DHT22;6795;51.232;3.764;2022-07-25T10:41:25;25.50;99.90
13446;DHT22;6795;51.232;3.764;2022-07-25T10:43:59;25.20;99.90
13446;DHT22;6795;51.232;3.764;2022-07-25T10:46:28;25.00;99.90
13446;DHT22;6795;51.232;3.764;2022-07-25T10:49:00;24.60;99.90
13446;DHT22;6795;51.232;3.764;2022-07-25T10:51:31;24.40;99.90
13446;DHT22;6795;51.232;3.764;2022-07-25T10:54:14;24.10;99.90
13446;DHT22;6795;51.232;3.764;2022-07-25T10:56:53;23.80;99.90
13446;DHT22;6795;51.232;3.764;2022-07-25T10:59:27;23.60;99.90
13446;DHT22;6795;51.232;3.764;2022-07-25T11:01:56;23.60;99.90
13446;DHT22;6795;51.232;3.764;2022-07-25T11:04:24;23.60;99.90
13446;DHT22;6795;51.232;3.764;2022-07-25T11:06:54;23.70;99.90
13446;DHT22;6795;51.232;3.764;2022-07-25T11:09:24;23.60;99.90
13446;DHT22;6795;51.232;3.764;2022-07-25T11:11:55;23.90;99.90
13446;DHT22;6795;51.232;3.764;2022-07-25T11:14:27;24.40;99.90
13446;DHT22;6795;51.232;3.764;2022-07-25T11:16:57;25.00;99.90
13446;DHT22;6795;51.232;3.764;2022-07-25T11:19:36;25.40;99.90
13446;DHT22;6795;51.232;3.764;2022-07-25T11:22:06;25.70;99.90
13446;DHT22;6795;51.232;3.764;2022-07-25T11:24:35;25.90;99.90
13446;DHT22;6795;51.232;3.764;2022-07-25T11:27:04;26.00;99.90
13446;DHT22;6795;51.232;3.764;2022-07-25T11:29:39;26.30;99.90
13446;DHT22;6795;51.232;3.764;2022-07-25T11:32:09;26.80;99.90
13446;DHT22;6795;51.232;3.764;2022-07-25T11:34:41;27.40;99.90
13446;DHT22;6795;51.232;3.764;2022-07-25T11:37:12;28.00;99.90
13446;DHT22;6795;51.232;3.764;2022-07-25T11:39:43;28.50;99.90
13446;DHT22;6795;51.232;3.764;2022-07-25T11:42:13;28.40;99.20
13446;DHT22;6795;51.232;3.764;2022-07-25T11:44:44;28.10;99.10
13446;DHT22;6795;51.232;3.764;2022-07-25T11:47:24;27.00;99.90
13446;DHT22;6795;51.232;3.764;2022-07-25T11:49:53;26.60;99.90
13446;DHT22;6795;51.232;3.764;2022-07-25T11:52:27;26.10;99.90
13446;DHT22;6795;51.232;3.764;2022-07-25T11:54:58;25.80;99.90
13446;DHT22;6795;51.232;3.764;2022-07-25T11:57:28;26.10;99.90
13446;DHT22;6795;51.232;3.764;2022-07-25T11:59:57;26.60;99.90
13446;DHT22;6795;51.232;3.764;2022-07-25T12:02:28;26.70;99.90
13446;DHT22;6795;51.232;3.764;2022-07-25T12:04:59;26.90;99.90
13446;DHT22;6795;51.232;3.764;2022-07-25T12:07:40;27.40;99.90
13446;DHT22;6795;51.232;3.764;2022-07-25T12:10:12;27.70;99.90
13446;DHT22;6795;51.232;3.764;2022-07-25T12:12:47;28.10;99.00
13446;DHT22;6795;51.232;3.764;2022-07-25T12:15:19;27.70;98.90
13446;DHT22;6795;51.232;3.764;2022-07-25T12:17:48;27.60;98.50
13446;DHT22;6795;51.232;3.764;2022-07-25T12:20:18;27.10;97.10
13446;DHT22;6795;51.232;3.764;2022-07-25T12:22:50;26.50;99.20
13446;DHT22;6795;51.232;3.764;2022-07-25T12:25:18;26.10;99.90
13446;DHT22;6795;51.232;3.764;2022-07-25T12:27:57;26.10;99.60
13446;DHT22;6795;51.232;3.764;2022-07-25T12:30:26;25.80;99.80
13446;DHT22;6795;51.232;3.764;2022-07-25T12:32:56;25.40;99.90
13446;DHT22;6795;51.232;3.764;2022-07-25T12:35:25;25.00;99.90
13446;DHT22;6795;51.232;3.764;2022-07-25T12:37:55;25.50;99.90
13446;DHT22;6795;51.232;3.764;2022-07-25T12:40:24;26.40;99.90
13446;DHT22;6795;51.232;3.764;2022-07-25T12:42:52;26.80;98.90
13446;DHT22;6795;51.232;3.764;2022-07-25T12:45:21;27.10;98.50
13446;DHT22;6795;51.232;3.764;2022-07-25T12:47:49;26.80;97.70
13446;DHT22;6795;51.232;3.764;2022-07-25T12:50:18;26.60;98.00
13446;DHT22;6795;51.232;3.764;2022-07-25T12:52:47;26.60;98.00
13446;DHT22;6795;51.232;3.764;2022-07-25T12:55:18;27.10;98.20
13446;DHT22;6795;51.232;3.764;2022-07-25T12:57:47;27.40;96.50
13446;DHT22;6795;51.232;3.764;2022-07-25T13:00:16;26.90;96.70
13446;DHT22;6795;51.232;3.764;2022-07-25T13:02:46;26.70;98.00
13446;DHT22;6795;51.232;3.764;2022-07-25T13:05:18;26.50;97.80
13446;DHT22;6795;51.232;3.764;2022-07-25T13:07:47;26.20;97.90
13446;DHT22;6795;51.232;3.764;2022-07-25T13:10:17;25.70;98.70
13446;DHT22;6795;51.232;3.764;2022-07-25T13:12:46;25.60;99.20
13446;DHT22;6795;51.232;3.764;2022-07-25T13:15:15;25.50;99.70
13446;DHT22;6795;51.232;3.764;2022-07-25T13:17:46;25.60;99.40
13446;DHT22;6795;51.232;3.764;2022-07-25T13:20:14;25.70;98.60
13446;DHT22;6795;51.232;3.764;2022-07-25T13:22:43;25.50;98.20
13446;DHT22;6795;51.232;3.764;2022-07-25T13:25:11;25.30;98.70
13446;DHT22;6795;51.232;3.764;2022-07-25T13:27:40;25.50;99.30
13446;DHT22;6795;51.232;3.764;2022-07-25T13:30:09;26.40;98.30
13446;DHT22;6795;51.232;3.764;2022-07-25T13:32:40;27.50;97.70
13446;DHT22;6795;51.232;3.764;2022-07-25T13:35:08;28.10;95.80
13446;DHT22;6795;51.232;3.764;2022-07-25T13:37:37;28.20;95.70
13446;DHT22;6795;51.232;3.764;2022-07-25T13:40:06;28.10;95.90
13446;DHT22;6795;51.232;3.764;2022-07-25T13:42:35;28.40;95.90
13446;DHT22;6795;51.232;3.764;2022-07-25T13:45:06;28.40;95.10
13446;DHT22;6795;51.232;3.764;2022-07-25T13:47:35;28.00;94.00
13446;DHT22;6795;51.232;3.764;2022-07-25T13:50:07;27.10;94.60
13446;DHT22;6795;51.232;3.764;2022-07-25T13:52:35;27.50;95.00
13446;DHT22;6795;51.232;3.764;2022-07-25T13:55:05;27.80;94.00
13446;DHT22;6795;51.232;3.764;2022-07-25T13:57:33;27.90;93.90
13446;DHT22;6795;51.232;3.764;2022-07-25T14:00:03;27.80;94.80
13446;DHT22;6795;51.232;3.764;2022-07-25T14:02:32;27.60;95.00
13446;DHT22;6795;51.232;3.764;2022-07-25T14:05:01;26.90;95.00
13446;DHT22;6795;51.232;3.764;2022-07-25T14:07:30;26.30;96.00
13446;DHT22;6795;51.232;3.764;2022-07-25T14:09:58;26.00;96.70
13446;DHT22;6795;51.232;3.764;2022-07-25T14:12:26;25.90;96.90
13446;DHT22;6795;51.232;3.764;2022-07-25T14:14:55;25.90;97.60
13446;DHT22;6795;51.232;3.764;2022-07-25T14:17:23;26.20;97.20
13446;DHT22;6795;51.232;3.764;2022-07-25T14:19:57;25.90;97.30
13446;DHT22;6795;51.232;3.764;2022-07-25T14:22:26;25.90;97.90
13446;DHT22;6795;51.232;3.764;2022-07-25T14:24:54;25.70;98.50
13446;DHT22;6795;51.232;3.764;2022-07-25T14:27:22;25.90;97.80
13446;DHT22;6795;51.232;3.764;2022-07-25T14:29:51;26.50;96.80
13446;DHT22;6795;51.232;3.764;2022-07-25T14:32:20;26.30;95.80
13446;DHT22;6795;51.232;3.764;2022-07-25T14:34:48;25.90;96.10
13446;DHT22;6795;51.232;3.764;2022-07-25T14:37:20;25.90;96.60
13446;DHT22;6795;51.232;3.764;2022-07-25T14:39:49;25.70;96.80
13446;DHT22;6795;51.232;3.764;2022-07-25T14:42:18;25.80;96.80
13446;DHT22;6795;51.232;3.764;2022-07-25T14:44:46;26.30;96.30
13446;DHT22;6795;51.232;3.764;2022-07-25T14:47:14;26.40;96.00
13446;DHT22;6795;51.232;3.764;2022-07-25T14:49:42;26.60;95.30
13446;DHT22;6795;51.232;3.764;2022-07-25T14:52:11;26.70;95.10
13446;DHT22;6795;51.232;3.764;2022-07-25T14:54:42;26.90;94.70
13446;DHT22;6795;51.232;3.764;2022-07-25T14:57:10;27.10;94.60
13446;DHT22;6795;51.232;3.764;2022-07-25T14:59:39;27.00;94.50
13446;DHT22;6795;51.232;3.764;2022-07-25T15:02:07;26.80;93.80
13446;DHT22;6795;51.232;3.764;2022-07-25T15:04:36;26.40;94.30
13446;DHT22;6795;51.232;3.764;2022-07-25T15:07:05;26.40;94.30
13446;DHT22;6795;51.232;3.764;2022-07-25T15:09:33;26.20;94.90
13446;DHT22;6795;51.232;3.764;2022-07-25T15:12:03;25.60;95.10
13446;DHT22;6795;51.232;3.764;2022-07-25T15:14:32;25.20;95.50
13446;DHT22;6795;51.232;3.764;2022-07-25T15:17:01;25.00;96.10
13446;DHT22;6795;51.232;3.764;2022-07-25T15:19:29;24.90;96.70
13446;DHT22;6795;51.232;3.764;2022-07-25T15:21:58;24.80;96.90
13446;DHT22;6795;51.232;3.764;2022-07-25T15:24:26;24.90;97.20
13446;DHT22;6795;51.232;3.764;2022-07-25T15:26:55;25.00;96.70
13446;DHT22;6795;51.232;3.764;2022-07-25T15:29:25;25.00;96.70
13446;DHT22;6795;51.232;3.764;2022-07-25T15:31:54;24.80;97.30
13446;DHT22;6795;51.232;3.764;2022-07-25T15:34:22;24.70;97.30
13446;DHT22;6795;51.232;3.764;2022-07-25T15:36:53;24.60;97.30
13446;DHT22;6795;51.232;3.764;2022-07-25T15:39:22;24.60;97.50
13446;DHT22;6795;51.232;3.764;2022-07-25T15:41:50;24.50;98.20
13446;DHT22;6795;51.232;3.764;2022-07-25T15:44:18;24.40;98.30
13446;DHT22;6795;51.232;3.764;2022-07-25T15:46:48;24.10;98.80
13446;DHT22;6795;51.232;3.764;2022-07-25T15:49:16;24.20;99.30
13446;DHT22;6795;51.232;3.764;2022-07-25T15:51:45;24.20;99.10
13446;DHT22;6795;51.232;3.764;2022-07-25T15:54:13;24.10;99.50
13446;DHT22;6795;51.232;3.764;2022-07-25T15:56:41;24.00;99.90
13446;DHT22;6795;51.232;3.764;2022-07-25T15:59:10;24.00;99.40
13446;DHT22;6795;51.232;3.764;2022-07-25T16:01:38;23.80;99.90
13446;DHT22;6795;51.232;3.764;2022-07-25T16:04:10;23.80;99.60